Time;durP1;ratioP1;P1;durP2;ratioP2;P2;SDS_P1;SDS_P2;PMS_P1;PMS_P2;Temp;Humidity;BMP_temperature;BMP_pressure;BME280_temperature;BME280_humidity;BME280_pressure;Samples;Min_cycle;Max_cycle;Signal;HPM_P1;HPM_P2
2022/08/08 00:01:43;;;;;;;10.98;7.60;;;;;;;15.34;70.17;102383.63;4898727;29;20032;-78
2022/08/08 00:04:23;;;;;;;10.15;7.60;;;;;;;15.34;70.09;102384.47;4899825;29;20080;-78
2022/08/08 00:06:56;;;;;;;9.98;8.32;;;;;;;15.30;70.49;102379.44;4909096;29;20422;-78
2022/08/08 00:09:22;;;;;;;10.52;7.93;;;;;;;15.30;69.34;102380.28;4902574;29;20036;-79
2022/08/08 00:11:57;;;;;;;11.37;7.70;;;;;;;15.22;70.40;102373.78;4912249;29;20541;-78
2022/08/08 00:14:35;;;;;;;14.43;7.53;;;;;;;15.26;69.86;102377.97;4916273;29;20279;-78
2022/08/08 00:17:13;;;;;;;9.63;8.00;;;;;;;15.15;70.80;102387.63;4888176;29;20054;-78
2022/08/08 00:19:49;;;;;;;10.80;7.70;;;;;;;15.07;70.31;102383.75;4909563;29;20028;-78
2022/08/08 00:22:23;;;;;;;9.60;7.30;;;;;;;15.03;70.04;102383.13;4891710;29;20028;-78
2022/08/08 00:24:53;;;;;;;10.88;7.63;;;;;;;15.02;70.42;102380.56;4897018;29;20541;-79
2022/08/08 00:27:20;;;;;;;14.35;7.75;;;;;;;15.00;70.25;102394.03;4897913;29;20037;-78
2022/08/08 00:30:02;;;;;;;8.98;7.22;;;;;;;15.03;69.86;102393.81;4881558;29;20032;-78
2022/08/08 00:32:56;;;;;;;11.18;7.90;;;;;;;14.99;69.64;102397.69;4898753;29;20525;-78
2022/08/08 00:35:40;;;;;;;10.93;7.32;;;;;;;14.88;71.18;102393.09;4897315;29;20163;-78
2022/08/08 00:38:22;;;;;;;11.35;7.70;;;;;;;14.88;70.92;102389.56;4904841;29;20613;-78
2022/08/08 00:41:24;;;;;;;12.10;7.80;;;;;;;14.88;70.47;102392.25;4896266;29;20098;-78
2022/08/08 00:44:01;;;;;;;7.97;7.13;;;;;;;14.85;71.69;102392.44;4904927;29;20028;-78
2022/08/08 00:46:34;;;;;;;13.48;8.27;;;;;;;14.83;71.62;102389.88;4903892;29;20560;-78
2022/08/08 00:49:34;;;;;;;13.15;8.00;;;;;;;14.81;71.46;102397.16;4907758;29;20029;-78
2022/08/08 00:52:09;;;;;;;12.82;7.63;;;;;;;14.77;71.30;102392.97;4952485;23;20060;-75
2022/08/08 00:55:07;;;;;;;9.60;8.25;;;;;;;14.75;71.39;102382.38;4908404;29;20422;-78
2022/08/08 00:57:41;;;;;;;13.10;8.43;;;;;;;14.70;72.45;102384.53;4923107;29;20039;-77
2022/08/08 01:00:10;;;;;;;10.88;8.23;;;;;;;14.66;72.93;102382.19;4923143;29;20031;-79
2022/08/08 01:02:57;;;;;;;14.27;8.30;;;;;;;14.69;72.53;102380.16;4914127;29;20071;-78
2022/08/08 01:05:56;;;;;;;13.13;9.35;;;;;;;14.68;71.83;102377.59;4930415;29;20038;-78
2022/08/08 01:08:40;;;;;;;;;;;;;;;14.78;69.23;102384.00;4922542;29;20035;-78
2022/08/08 01:11:42;;;;;;;10.93;8.25;;;;;;;14.66;71.68;102377.69;4918928;29;19915;-78
2022/08/08 01:14:52;;;;;;;14.07;8.60;;;;;;;14.63;71.29;102383.25;4919292;29;20390;-78
2022/08/08 01:17:51;;;;;;;12.50;8.48;;;;;;;14.59;72.10;102379.94;4921973;29;20045;-77
2022/08/08 01:20:39;;;;;;;10.80;8.20;;;;;;;14.58;72.32;102380.84;4931313;29;20039;-77
2022/08/08 01:23:39;;;;;;;12.32;8.98;;;;;;;14.49;72.80;102381.50;4925933;29;20106;-78
2022/08/08 01:26:19;;;;;;;12.05;8.70;;;;;;;14.46;72.71;102383.53;4905217;29;20052;-78
2022/08/08 01:29:21;;;;;;;12.90;9.52;;;;;;;14.43;72.12;102376.56;4919599;29;20118;-78
2022/08/08 01:31:59;;;;;;;10.07;9.02;;;;;;;14.36;73.17;102373.47;4918865;29;20032;-77
2022/08/08 01:34:43;;;;;;;10.48;9.00;;;;;;;14.34;73.67;102377.19;4908403;29;20032;-77
2022/08/08 01:38:03;;;;;;;12.40;9.38;;;;;;;14.35;72.34;102368.22;4926060;29;20508;-78
2022/08/08 01:40:57;;;;;;;11.88;8.75;;;;;;;14.35;71.82;102368.22;4878604;29;20041;-78
2022/08/08 01:43:52;;;;;;;14.40;9.15;;;;;;;14.32;72.84;102365.75;4913540;29;20048;-77
2022/08/08 01:46:23;;;;;;;11.13;9.35;;;;;;;14.30;73.52;102375.69;4916796;29;20028;-77
2022/08/08 01:49:14;;;;;;;11.07;9.95;;;;;;;14.30;72.67;102368.53;4912034;29;20385;-77
2022/08/08 01:52:07;;;;;;;12.00;9.13;;;;;;;14.30;72.77;102368.53;4906893;29;20501;-78
2022/08/08 01:54:50;;;;;;;12.40;8.98;;;;;;;14.25;73.58;102376.00;4880881;29;20032;-78
2022/08/08 01:57:26;;;;;;;12.25;9.02;;;;;;;14.22;73.88;102381.53;4884331;29;20044;-77
2022/08/08 01:59:58;;;;;;;10.85;8.82;;;;;;;14.16;73.78;102376.63;4905531;29;20060;-78
2022/08/08 02:02:45;;;;;;;13.63;9.57;;;;;;;14.03;73.48;102374.78;4916697;29;20028;-77
2022/08/08 02:05:16;;;;;;;10.10;8.32;;;;;;;14.06;73.48;102379.06;4886744;29;20490;-78
2022/08/08 02:07:59;;;;;;;11.80;9.07;;;;;;;14.03;73.60;102381.94;4887852;29;20061;-78
2022/08/08 02:10:40;;;;;;;9.77;8.77;;;;;;;13.96;73.04;102368.13;4898050;29;20387;-78
2022/08/08 02:13:14;;;;;;;11.95;9.48;;;;;;;13.95;73.35;102382.44;4900646;29;20168;-77
2022/08/08 02:15:49;;;;;;;16.83;9.57;;;;;;;13.94;73.81;102385.22;4913784;29;20037;-78
2022/08/08 02:18:20;;;;;;;12.82;8.95;;;;;;;13.92;74.47;102377.28;4893157;29;20120;-78
2022/08/08 02:23:54;;;;;;;12.25;9.93;;;;;;;13.91;74.20;102372.94;4900256;29;20136;-77
2022/08/08 02:26:49;;;;;;;14.07;10.20;;;;;;;13.85;73.80;102384.84;4898353;29;20061;-78
2022/08/08 02:29:14;;;;;;;13.98;10.07;;;;;;;13.77;74.72;102381.88;4913806;29;20063;-77
2022/08/08 02:32:09;;;;;;;10.63;9.53;;;;;;;13.79;74.30;102382.63;4921177;29;20059;-78
2022/08/08 02:35:02;;;;;;;13.27;9.55;;;;;;;13.78;73.95;102377.38;4899461;29;20033;-77
2022/08/08 02:38:02;;;;;;;15.00;10.65;;;;;;;13.77;74.12;102380.97;4903596;29;20025;-77
2022/08/08 02:40:47;;;;;;;11.88;9.98;;;;;;;13.65;75.22;102377.31;4864270;29;20040;-77
2022/08/08 02:43:31;;;;;;;16.25;10.43;;;;;;;13.71;75.12;102378.75;4903178;29;20029;-77
2022/08/08 02:46:15;;;;;;;13.18;10.20;;;;;;;13.72;74.15;102381.28;4901651;29;20053;-77
2022/08/08 02:48:57;;;;;;;11.68;9.90;;;;;;;13.68;75.84;102377.13;4913728;29;20020;-78
2022/08/08 02:51:55;;;;;;;13.55;10.10;;;;;;;13.63;75.47;102377.41;4914889;29;20120;-77
2022/08/08 02:54:38;;;;;;;14.07;10.55;;;;;;;13.60;75.94;102379.41;4891226;29;20040;-77
2022/08/08 02:57:37;;;;;;;12.10;9.80;;;;;;;13.60;75.41;102371.41;4902427;29;20040;-79
2022/08/08 03:00:21;;;;;;;12.32;10.30;;;;;;;13.53;75.74;102378.97;4913292;29;20084;-78
2022/08/08 03:03:19;;;;;;;14.10;10.50;;;;;;;13.53;75.75;102383.47;4921294;29;20043;-78
2022/08/08 03:06:13;;;;;;;13.52;9.82;;;;;;;13.38;76.19;102372.81;4876055;29;20512;-78
2022/08/08 03:09:21;;;;;;;13.80;9.65;;;;;;;13.49;74.92;102388.13;4914189;29;20039;-77
2022/08/08 03:12:19;;;;;;;18.15;9.88;;;;;;;13.46;75.52;102388.34;4902195;29;20481;-78
2022/08/08 03:14:55;;;;;;;13.30;10.55;;;;;;;13.30;75.14;102367.06;4903793;29;20036;-78
2022/08/08 03:17:47;;;;;;;15.65;10.88;;;;;;;13.40;75.05;102384.22;4882365;29;20065;-77
2022/08/08 03:20:14;;;;;;;12.25;10.60;;;;;;;13.30;76.03;102386.59;4899393;29;20025;-78
2022/08/08 03:22:46;;;;;;;12.38;10.32;;;;;;;13.31;75.78;102376.78;4910712;29;20039;-78
2022/08/08 03:25:13;;;;;;;12.40;10.73;;;;;;;13.27;76.10;102385.94;4912649;29;20468;-77
2022/08/08 03:27:59;;;;;;;13.13;9.98;;;;;;;13.30;75.76;102383.91;4903156;29;20028;-77
2022/08/08 03:30:25;;;;;;;16.70;10.60;;;;;;;13.23;76.54;102390.59;4886656;29;20148;-77
2022/08/08 03:35:39;;;;;;;14.65;10.32;;;;;;;13.21;76.58;102394.34;4919847;29;20099;-77
2022/08/08 03:38:05;;;;;;;12.80;11.48;;;;;;;13.21;76.26;102392.53;4902948;29;20493;-77
2022/08/08 03:40:30;;;;;;;17.52;10.63;;;;;;;13.16;76.56;102397.28;4910609;29;20024;-77
2022/08/08 03:42:57;;;;;;;13.98;10.73;;;;;;;13.14;76.76;102397.38;4915343;29;20039;-77
2022/08/08 03:45:24;;;;;;;15.35;11.40;;;;;;;13.11;76.89;102402.06;4899690;29;20064;-77
2022/08/08 03:48:01;;;;;;;12.05;10.63;;;;;;;13.09;76.66;102395.94;4906553;29;20024;-77
2022/08/08 03:50:28;;;;;;;13.05;10.85;;;;;;;13.05;77.14;102397.94;4911248;29;20051;-77
2022/08/08 03:52:54;;;;;;;13.85;11.05;;;;;;;13.04;77.66;102396.25;4901973;29;20123;-77
2022/08/08 03:55:20;;;;;;;14.27;11.40;;;;;;;13.04;77.93;102403.38;4917275;29;20477;-78
2022/08/08 03:57:48;;;;;;;15.95;11.63;;;;;;;13.02;77.94;102403.47;4915890;29;20086;-77
2022/08/08 04:00:16;;;;;;;13.30;11.60;;;;;;;13.00;78.14;102402.72;4902466;29;20481;-77
2022/08/08 04:02:42;;;;;;;13.60;10.85;;;;;;;13.03;77.60;102404.34;4894411;29;20682;-77
2022/08/08 04:05:08;;;;;;;16.48;11.02;;;;;;;13.00;77.77;102407.19;4900960;29;20025;-77
2022/08/08 04:07:38;;;;;;;13.43;11.52;;;;;;;12.96;78.67;102418.06;4908759;29;20035;-78
2022/08/08 04:10:05;;;;;;;13.55;12.10;;;;;;;12.98;78.86;102419.78;4919357;29;20111;-77
2022/08/08 04:12:31;;;;;;;15.50;12.43;;;;;;;12.97;78.25;102418.91;4908669;29;20036;-78
2022/08/08 04:14:56;;;;;;;16.55;11.77;;;;;;;12.93;78.17;102412.91;4901142;29;20032;-78
2022/08/08 04:17:22;;;;;;;15.38;11.73;;;;;;;12.94;77.83;102419.97;4913192;29;20028;-77
2022/08/08 04:19:47;;;;;;;16.17;11.32;;;;;;;12.93;78.37;102417.38;4887769;29;20044;-77
2022/08/08 04:22:12;;;;;;;13.60;11.57;;;;;;;12.91;78.35;102413.97;4888099;29;20033;-78
2022/08/08 04:24:37;;;;;;;16.23;11.73;;;;;;;12.90;78.38;102417.56;4906650;29;20553;-78
2022/08/08 04:27:03;;;;;;;16.77;12.30;;;;;;;12.91;78.83;102422.81;4901421;29;20032;-78
2022/08/08 04:29:29;;;;;;;18.88;11.38;;;;;;;12.86;78.34;102416.06;4893179;29;20478;-78
2022/08/08 04:31:54;;;;;;;17.30;12.93;;;;;;;12.86;79.13;102419.56;4895149;29;20037;-78
2022/08/08 04:34:19;;;;;;;14.27;12.17;;;;;;;12.88;79.06;102417.66;4912498;29;20024;-78
2022/08/08 04:36:44;;;;;;;14.63;11.87;;;;;;;12.85;79.28;102409.00;4886146;29;20328;-79
2022/08/08 04:39:10;;;;;;;15.13;11.73;;;;;;;12.91;79.26;102419.31;4896686;29;20293;-77
2022/08/08 04:41:35;;;;;;;15.02;12.50;;;;;;;12.92;79.15;102421.00;4903817;29;20288;-77
2022/08/08 04:44:00;;;;;;;16.20;11.27;;;;;;;12.95;79.02;102434.16;4920274;29;20389;-78
2022/08/08 04:46:26;;;;;;;13.13;11.35;;;;;;;12.95;79.14;102429.66;4907558;29;20025;-78
2022/08/08 04:48:51;;;;;;;15.60;11.50;;;;;;;12.94;79.59;102435.13;4906582;29;20040;-78
2022/08/08 04:51:16;;;;;;;17.30;11.38;;;;;;;13.02;79.46;102447.97;4901467;29;20044;-78
2022/08/08 04:53:41;;;;;;;13.77;11.60;;;;;;;13.03;79.07;102442.53;4906662;29;20053;-78
2022/08/08 04:56:07;;;;;;;15.93;11.90;;;;;;;13.04;78.92;102446.06;4887216;29;20719;-78
2022/08/08 04:58:32;;;;;;;15.45;11.35;;;;;;;13.06;79.29;102453.03;4899781;29;20315;-78
2022/08/08 05:00:58;;;;;;;12.55;11.18;;;;;;;13.09;79.38;102449.28;4905289;29;20080;-78
2022/08/08 05:03:23;;;;;;;17.02;13.15;;;;;;;13.05;79.88;102455.78;4918570;29;20032;-78
2022/08/08 05:05:51;;;;;;;18.00;12.23;;;;;;;13.09;79.66;102458.19;4902088;29;20112;-78
2022/08/08 05:08:16;;;;;;;17.33;12.00;;;;;;;13.15;79.22;102456.94;4899440;29;20056;-78
2022/08/08 05:10:42;;;;;;;18.00;11.48;;;;;;;13.17;79.84;102455.00;4901249;29;20051;-78
2022/08/08 05:13:07;;;;;;;14.18;12.35;;;;;;;13.19;79.89;102452.25;4881610;29;20025;-78
2022/08/08 05:15:32;;;;;;;16.05;12.30;;;;;;;13.22;80.36;102460.06;4914892;29;20058;-78
2022/08/08 05:17:57;;;;;;;17.38;12.63;;;;;;;13.23;79.99;102464.47;4908230;29;20362;-78
2022/08/08 05:20:23;;;;;;;17.67;12.45;;;;;;;13.22;80.58;102468.97;4916730;29;20024;-79
2022/08/08 05:22:49;;;;;;;16.70;12.65;;;;;;;13.24;81.01;102464.38;4907983;29;20430;-78
2022/08/08 05:25:14;;;;;;;16.90;12.63;;;;;;;13.30;81.27;102466.63;4899751;29;20037;-78
2022/08/08 05:27:39;;;;;;;13.45;12.02;;;;;;;13.39;81.16;102470.59;4881793;29;20036;-78
2022/08/08 05:30:09;;;;;;;14.83;13.17;;;;;;;13.47;81.55;102470.97;4885594;29;20470;-78
2022/08/08 05:32:36;;;;;;;15.75;11.85;;;;;;;13.55;81.55;102472.31;4892669;29;20770;-78
2022/08/08 05:35:02;;;;;;;13.52;11.88;;;;;;;13.63;81.72;102459.31;4910742;29;20033;-78
2022/08/08 05:37:30;;;;;;;17.45;13.02;;;;;;;13.71;81.90;102464.19;4909535;29;20024;-79
2022/08/08 05:40:00;;;;;;;19.60;13.27;;;;;;;13.69;82.04;102454.44;4917401;29;20028;-79
2022/08/08 05:42:42;;;;;;;15.40;12.77;;;;;;;13.87;82.31;102468.44;4900862;29;20032;-79
2022/08/08 05:45:09;;;;;;;16.90;11.90;;;;;;;13.96;82.53;102455.44;4880365;29;20052;-79
2022/08/08 05:47:38;;;;;;;22.60;13.07;;;;;;;14.03;82.88;102464.75;4882347;29;20071;-78
2022/08/08 05:50:05;;;;;;;17.10;11.82;;;;;;;14.15;82.19;102468.44;4897859;29;20033;-77
2022/08/08 05:52:33;;;;;;;22.25;12.77;;;;;;;14.26;82.64;102465.91;4900152;29;20044;-78
2022/08/08 05:54:58;;;;;;;18.23;12.02;;;;;;;14.35;82.66;102467.97;4898521;29;20466;-79
2022/08/08 05:57:26;;;;;;;17.05;12.13;;;;;;;14.49;81.97;102472.41;4895706;29;20052;-78
2022/08/08 05:59:55;;;;;;;17.30;12.20;;;;;;;14.59;82.35;102470.84;4881436;29;20024;-79
2022/08/08 06:05:08;;;;;;;16.00;10.73;;;;;;;14.69;81.32;102467.53;4899698;29;20272;-79
2022/08/08 06:07:37;;;;;;;19.98;12.05;;;;;;;14.82;81.68;102471.06;4887643;29;20045;-78
2022/08/08 06:10:02;;;;;;;;;;;;;;;14.93;79.68;102476.56;4896297;29;20526;-79
2022/08/08 06:12:30;;;;;;;16.05;11.40;;;;;;;15.04;81.76;102480.28;4900934;29;19950;-79
2022/08/08 06:14:59;;;;;;;12.05;10.85;;;;;;;15.10;81.04;102470.03;4897627;29;20119;-79
2022/08/08 06:17:25;;;;;;;16.52;10.77;;;;;;;15.18;81.47;102481.03;4892727;29;20048;-78
2022/08/08 06:19:51;;;;;;;13.90;11.32;;;;;;;15.24;81.51;102478.91;4903602;29;20043;-78
2022/08/08 06:22:17;;;;;;;13.02;11.27;;;;;;;15.26;80.68;102480.53;4902933;29;20036;-80
2022/08/08 06:24:42;;;;;;;15.87;11.00;;;;;;;15.37;80.88;102495.84;4890732;29;20035;-78
2022/08/08 06:27:09;;;;;;;13.07;10.83;;;;;;;15.46;80.94;102488.97;4892663;29;20347;-79
2022/08/08 06:29:54;;;;;;;13.32;10.45;;;;;;;15.54;80.12;102492.81;4890422;29;20309;-78
2022/08/08 06:32:27;;;;;;;14.65;11.00;;;;;;;15.75;79.62;102499.41;4886785;29;20029;-78
2022/08/08 06:34:54;;;;;;;16.45;10.77;;;;;;;15.82;78.31;102493.53;4897525;29;20024;-78
2022/08/08 06:37:22;;;;;;;14.23;10.30;;;;;;;16.01;79.23;102494.88;4891000;29;20100;-80
2022/08/08 06:39:50;;;;;;;14.77;10.48;;;;;;;16.21;78.51;102493.41;4894963;29;20032;-78
2022/08/08 06:42:17;;;;;;;14.52;9.48;;;;;;;16.41;78.37;102499.94;4908570;29;20032;-79
2022/08/08 06:44:47;;;;;;;13.52;9.23;;;;;;;16.54;77.32;102487.31;4915381;29;20028;-79
2022/08/08 06:47:13;;;;;;;12.50;8.95;;;;;;;16.72;76.46;102498.47;4909704;29;20032;-78
2022/08/08 06:49:40;;;;;;;10.07;8.90;;;;;;;16.90;75.38;102503.44;4913309;29;21404;-78
2022/08/08 06:52:06;;;;;;;12.82;9.00;;;;;;;17.16;74.89;102506.78;4908389;29;20080;-79
2022/08/08 06:54:31;;;;;;;17.85;8.23;;;;;;;17.24;73.20;102509.72;4900418;29;20595;-80
2022/08/08 06:56:58;;;;;;;10.70;7.35;;;;;;;17.41;73.15;102503.00;4916199;29;20055;-79
2022/08/08 06:59:23;;;;;;;11.32;8.07;;;;;;;17.53;72.15;102502.00;4905509;29;20106;-79
2022/08/08 07:01:59;;;;;;;10.18;7.68;;;;;;;17.72;71.89;102505.94;4909110;29;20099;-78
2022/08/08 07:04:49;;;;;;;9.45;7.40;;;;;;;17.86;71.10;102513.72;4881487;29;20040;-78
2022/08/08 07:07:29;;;;;;;10.00;7.90;;;;;;;17.94;71.39;102479.03;4881545;29;20043;-79
2022/08/08 07:10:03;;;;;;;11.82;7.05;;;;;;;18.32;70.11;102511.81;4898349;29;20106;-79
2022/08/08 07:12:41;;;;;;;12.38;7.40;;;;;;;18.56;70.26;102508.03;4912595;29;20044;-79
2022/08/08 07:15:09;;;;;;;11.98;6.25;;;;;;;18.75;68.61;102510.03;4894543;29;20037;-79
2022/08/08 07:17:56;;;;;;;8.45;5.80;;;;;;;18.94;68.11;102507.50;4904841;29;20465;-79
2022/08/08 07:20:28;;;;;;;7.55;6.10;;;;;;;19.20;66.35;102512.44;4916654;29;20036;-79
2022/08/08 07:23:19;;;;;;;11.65;5.80;;;;;;;19.49;65.21;102522.53;4908761;29;20028;-80
2022/08/08 07:25:47;;;;;;;8.65;5.45;;;;;;;19.80;63.65;102519.84;4909863;29;20036;-80
2022/08/08 07:28:14;;;;;;;9.20;4.80;;;;;;;19.94;62.02;102517.59;4903297;29;20119;-80
2022/08/08 07:30:41;;;;;;;5.50;4.15;;;;;;;20.17;61.08;102516.50;4906915;29;20033;-80
2022/08/08 07:33:10;;;;;;;8.88;4.03;;;;;;;20.34;60.31;102519.34;4904926;29;20037;-79
2022/08/08 07:35:37;;;;;;;8.30;3.60;;;;;;;20.58;59.36;102518.06;4898078;29;20040;-80
2022/08/08 07:38:03;;;;;;;6.70;3.10;;;;;;;20.80;57.97;102516.09;4907892;29;20035;-80
2022/08/08 07:40:30;;;;;;;8.35;3.42;;;;;;;20.98;57.97;102511.66;4909240;29;20042;-80
2022/08/08 07:42:55;;;;;;;9.93;3.92;;;;;;;21.26;57.27;102509.03;4924413;29;20456;-80
2022/08/08 07:45:22;;;;;;;5.57;2.55;;;;;;;21.31;55.79;102516.72;4914676;29;20052;-78
2022/08/08 07:47:48;;;;;;;7.35;2.92;;;;;;;21.50;55.91;102510.38;4908865;29;20043;-78
2022/08/08 07:50:14;;;;;;;7.00;3.10;;;;;;;21.64;54.40;102518.03;4909028;29;20533;-79
2022/08/08 07:52:45;;;;;;;5.85;3.05;;;;;;;21.71;54.27;102512.88;4902355;29;20112;-79
2022/08/08 07:55:21;;;;;;;5.30;3.10;;;;;;;21.86;54.67;102516.75;4890922;29;20065;-79
2022/08/08 07:57:56;;;;;;;6.82;2.95;;;;;;;22.02;54.14;102517.97;4900426;29;20415;-77
2022/08/08 08:00:25;;;;;;;6.72;2.50;;;;;;;22.16;54.37;102523.69;4896435;29;20047;-78
2022/08/08 08:02:53;;;;;;;;;;;;;;;22.42;56.84;102528.38;4898976;29;20059;-78
2022/08/08 08:05:27;;;;;;;7.57;3.20;;;;;;;22.54;53.54;102529.00;4891541;29;19949;-78
2022/08/08 08:07:54;;;;;;;6.57;3.00;;;;;;;22.77;51.92;102539.34;4915885;29;20287;-78
2022/08/08 08:10:20;;;;;;;7.57;2.90;;;;;;;23.01;51.80;102536.78;4911304;29;20120;-78
2022/08/08 08:12:57;;;;;;;5.60;2.80;;;;;;;23.18;51.39;102526.97;4900235;29;20480;-78
2022/08/08 08:15:25;;;;;;;4.03;2.47;;;;;;;23.40;50.07;102530.97;4900884;29;20128;-77
2022/08/08 08:17:56;;;;;;;7.45;2.53;;;;;;;23.56;49.28;102541.03;4891127;29;20119;-77
2022/08/08 08:20:27;;;;;;;11.48;2.58;;;;;;;23.71;49.46;102535.00;4902840;29;20036;-78
2022/08/08 08:22:53;;;;;;;6.55;2.30;;;;;;;23.89;48.75;102533.06;4901449;29;20146;-76
2022/08/08 08:25:18;;;;;;;4.55;2.05;;;;;;;23.95;46.70;102531.59;4900277;29;20370;-76
2022/08/08 08:27:44;;;;;;;5.28;2.13;;;;;;;24.15;46.68;102541.13;4900110;29;20037;-77
2022/08/08 08:30:09;;;;;;;5.65;2.20;;;;;;;24.29;46.11;102536.06;4901537;29;20024;-77
2022/08/08 08:32:35;;;;;;;5.72;2.00;;;;;;;24.45;45.59;102536.09;4918689;29;20035;-79
2022/08/08 08:35:01;;;;;;;5.93;2.40;;;;;;;24.77;45.05;102547.16;4902276;29;20035;-78
2022/08/08 08:37:26;;;;;;;6.88;2.10;;;;;;;24.86;44.65;102530.66;4909859;29;20303;-78
2022/08/08 08:39:51;;;;;;;5.88;2.40;;;;;;;25.02;43.42;102545.28;4904895;29;20035;-78
2022/08/08 08:42:17;;;;;;;6.03;2.10;;;;;;;25.12;43.37;102541.31;4894139;29;20033;-79
2022/08/08 08:44:43;;;;;;;5.57;2.17;;;;;;;25.20;43.19;102545.06;4912594;29;20280;-78
2022/08/08 08:47:08;;;;;;;6.00;2.30;;;;;;;25.40;43.74;102540.13;4910286;29;20496;-78
2022/08/08 08:49:34;;;;;;;3.95;1.67;;;;;;;25.50;42.85;102540.75;4907720;29;20016;-78
2022/08/08 08:52:01;;;;;;;5.50;2.00;;;;;;;25.60;42.19;102549.56;4898773;29;20048;-78
2022/08/08 08:54:30;;;;;;;5.80;1.90;;;;;;;25.76;42.02;102542.34;4900795;29;20024;-79
2022/08/08 08:56:56;;;;;;;;;;;;;;;26.13;44.19;102547.13;4905740;29;20485;-78
2022/08/08 08:59:24;;;;;;;4.20;1.75;;;;;;;26.14;39.83;102542.50;4896182;29;19950;-77
2022/08/08 09:01:52;;;;;;;5.60;1.60;;;;;;;26.48;39.92;102544.84;4885273;29;20037;-78
2022/08/08 09:04:23;;;;;;;5.00;1.50;;;;;;;26.63;38.89;102544.94;4886874;29;20024;-78
2022/08/08 09:06:52;;;;;;;3.97;1.40;;;;;;;26.59;39.07;102538.94;4898646;29;20028;-79
2022/08/08 09:09:22;;;;;;;2.72;1.42;;;;;;;27.12;37.67;102540.88;4899243;29;20378;-78
2022/08/08 09:11:49;;;;;;;6.78;1.73;;;;;;;27.24;37.81;102549.44;4883375;29;20070;-77
2022/08/08 09:14:16;;;;;;;5.18;2.00;;;;;;;27.29;37.98;102545.13;4895608;29;20045;-76
2022/08/08 09:16:41;;;;;;;6.05;1.80;;;;;;;27.40;37.84;102543.84;4901698;29;20043;-81
2022/08/08 09:19:08;;;;;;;3.65;1.25;;;;;;;27.47;37.29;102539.31;4901679;29;20114;-79
2022/08/08 09:21:33;;;;;;;2.30;1.27;;;;;;;27.70;36.28;102541.09;4901891;29;20084;-80
2022/08/08 09:24:00;;;;;;;4.65;1.20;;;;;;;27.74;36.07;102544.28;4908932;29;20028;-79
2022/08/08 09:26:36;;;;;;;4.35;1.70;;;;;;;27.88;35.89;102549.72;4917093;29;20544;-80
2022/08/08 09:29:02;;;;;;;4.47;1.40;;;;;;;27.82;36.02;102547.72;4913595;29;20040;-80
2022/08/08 09:31:35;;;;;;;2.90;1.15;;;;;;;28.00;35.96;102549.25;4906822;29;20026;-81
2022/08/08 09:34:03;;;;;;;3.00;1.20;;;;;;;28.16;35.75;102549.00;4915100;29;20052;-81
2022/08/08 09:36:31;;;;;;;4.50;1.45;;;;;;;28.18;35.54;102552.38;4901461;29;20032;-81
2022/08/08 09:39:03;;;;;;;6.47;1.60;;;;;;;28.24;36.96;102543.44;4899507;29;20029;-81
2022/08/08 09:41:41;;;;;;;4.13;1.38;;;;;;;28.27;36.87;102538.59;4898847;29;20025;-81
2022/08/08 09:44:26;;;;;;;2.75;1.20;;;;;;;28.28;37.00;102537.53;4906593;29;20028;-80
2022/08/08 09:46:55;;;;;;;3.13;1.30;;;;;;;28.23;35.69;102536.25;4892681;29;20020;-80
2022/08/08 09:49:21;;;;;;;3.63;1.30;;;;;;;28.52;36.38;102539.91;4906425;29;20039;-80
2022/08/08 09:51:51;;;;;;;3.83;1.08;;;;;;;28.67;36.15;102539.84;4898590;29;20064;-80
2022/08/08 09:54:21;;;;;;;5.15;1.80;;;;;;;28.75;35.40;102536.13;4902932;29;20024;-80
2022/08/08 09:56:53;;;;;;;3.55;1.45;;;;;;;29.02;36.43;102537.16;4901543;29;20037;-80
2022/08/08 09:59:27;;;;;;;4.15;1.23;;;;;;;29.45;35.75;102534.31;4905235;29;20061;-80
2022/08/08 10:01:55;;;;;;;2.63;1.08;;;;;;;29.09;35.34;102535.31;4912237;29;20081;-80
2022/08/08 10:04:24;;;;;;;4.17;1.50;;;;;;;28.76;36.05;102535.06;4902737;29;20391;-79
2022/08/08 10:06:52;;;;;;;3.28;1.45;;;;;;;28.65;34.83;102543.84;4901427;29;20080;-80
2022/08/08 10:09:32;;;;;;;3.17;1.35;;;;;;;28.39;36.80;102539.78;4901295;29;20032;-80
2022/08/08 10:12:02;;;;;;;3.85;1.30;;;;;;;28.11;36.68;102542.41;4902222;29;20374;-80
2022/08/08 10:14:35;;;;;;;2.47;1.38;;;;;;;28.00;36.01;102551.97;4909805;29;20595;-80
2022/08/08 10:17:09;;;;;;;6.53;1.17;;;;;;;27.99;36.56;102542.09;4905801;29;20075;-79
2022/08/08 10:19:37;;;;;;;2.97;1.38;;;;;;;28.22;35.46;102540.03;4911960;29;20032;-81
2022/08/08 10:22:04;;;;;;;5.17;1.03;;;;;;;28.51;34.88;102530.03;4901687;29;20037;-81
2022/08/08 10:24:30;;;;;;;2.83;1.10;;;;;;;28.54;34.01;102535.06;4913471;29;20036;-81
2022/08/08 10:27:02;;;;;;;3.50;1.10;;;;;;;28.79;34.88;102534.69;4918234;29;20061;-79
2022/08/08 10:29:44;;;;;;;1.77;1.10;;;;;;;29.13;34.82;102535.78;4903635;29;20032;-80
2022/08/08 10:32:31;;;;;;;4.43;1.40;;;;;;;28.82;34.15;102538.91;4883357;29;20061;-80
2022/08/08 10:34:59;;;;;;;5.15;1.95;;;;;;;28.89;34.18;102539.81;4900766;29;20032;-80
2022/08/08 10:37:34;;;;;;;3.63;1.48;;;;;;;29.06;35.33;102538.47;4905955;29;20064;-80
2022/08/08 10:40:12;;;;;;;2.72;1.23;;;;;;;29.11;33.68;102535.97;4917557;29;20422;-80
2022/08/08 10:42:39;;;;;;;1.83;1.00;;;;;;;29.04;32.41;102537.81;4920180;29;20044;-79
2022/08/08 10:45:06;;;;;;;2.40;1.00;;;;;;;29.14;33.09;102529.25;4903341;29;20382;-79
2022/08/08 10:47:32;;;;;;;3.45;1.00;;;;;;;29.24;32.85;102529.75;4902847;29;20035;-79
2022/08/08 10:50:00;;;;;;;4.47;1.20;;;;;;;29.55;32.06;102516.66;4904228;29;20025;-79
2022/08/08 10:52:34;;;;;;;1.88;0.93;;;;;;;29.96;32.04;102518.50;4905251;29;20514;-80
2022/08/08 10:55:14;;;;;;;3.88;1.27;;;;;;;30.26;31.87;102532.72;4905289;29;20048;-80
2022/08/08 10:57:42;;;;;;;4.70;1.00;;;;;;;30.37;31.69;102512.09;4909140;29;20389;-80
2022/08/08 11:00:10;;;;;;;2.47;0.93;;;;;;;30.66;32.70;102519.06;4924371;29;20458;-80
2022/08/08 11:02:36;;;;;;;2.13;0.85;;;;;;;30.51;31.83;102516.53;4917596;29;20031;-79
2022/08/08 11:05:05;;;;;;;2.33;1.20;;;;;;;29.94;32.11;102521.44;4904246;29;20096;-80
2022/08/08 11:07:33;;;;;;;3.28;1.17;;;;;;;29.86;32.27;102521.63;4922234;29;20024;-80
2022/08/08 11:10:09;;;;;;;2.78;0.90;;;;;;;29.61;33.32;102522.19;4913002;29;20036;-80
2022/08/08 11:12:51;;;;;;;3.05;1.60;;;;;;;29.44;33.28;102515.34;4901755;29;20033;-80
2022/08/08 11:15:22;;;;;;;4.32;1.00;;;;;;;29.20;32.02;102516.69;4898405;29;20083;-80
2022/08/08 11:17:48;;;;;;;3.63;1.00;;;;;;;28.88;33.24;102530.78;4902864;29;20568;-80
2022/08/08 11:20:25;;;;;;;1.25;0.80;;;;;;;28.71;32.60;102522.03;4905982;29;20040;-80
2022/08/08 11:22:59;;;;;;;1.20;0.60;;;;;;;29.20;32.97;102517.53;4904998;29;20040;-81
2022/08/08 11:25:29;;;;;;;1.65;0.68;;;;;;;29.37;33.41;102504.34;4915668;29;20545;-79
2022/08/08 11:27:55;;;;;;;2.00;0.90;;;;;;;29.26;31.68;102514.00;4902315;29;20036;-80
2022/08/08 11:30:22;;;;;;;4.03;1.00;;;;;;;28.98;32.19;102509.38;4901533;29;20028;-80
2022/08/08 11:32:52;;;;;;;1.35;0.77;;;;;;;28.84;32.51;102512.22;4914895;29;20454;-79
2022/08/08 11:35:20;;;;;;;2.92;0.88;;;;;;;28.58;32.28;102514.53;4914163;29;20048;-79
2022/08/08 11:37:46;;;;;;;2.38;1.02;;;;;;;28.63;32.63;102510.34;4908085;29;20025;-79
2022/08/08 11:40:13;;;;;;;4.22;0.82;;;;;;;28.60;32.36;102509.72;4882539;29;20033;-79
2022/08/08 11:42:40;;;;;;;2.17;0.90;;;;;;;28.44;32.83;102507.22;4909981;29;20043;-80
2022/08/08 11:45:07;;;;;;;1.13;0.80;;;;;;;28.32;33.30;102506.06;4892112;29;20024;-79
2022/08/08 11:47:33;;;;;;;2.28;1.02;;;;;;;28.05;34.25;102500.34;4920622;29;20385;-79
2022/08/08 11:50:02;;;;;;;2.83;0.90;;;;;;;28.04;34.52;102506.84;4895393;29;20036;-80
2022/08/08 11:52:28;;;;;;;3.25;0.95;;;;;;;28.10;33.39;102503.34;4900496;29;20048;-80
2022/08/08 11:54:54;;;;;;;1.27;0.60;;;;;;;28.12;32.96;102490.31;4892744;29;20377;-80